Time;durP1;ratioP1;P1;durP2;ratioP2;P2;SDS_P1;SDS_P2;PMS_P1;PMS_P2;Temp;Humidity;BMP_temperature;BMP_pressure;BME280_temperature;BME280_humidity;BME280_pressure;Samples;Min_cycle;Max_cycle;Signal;HPM_P1;HPM_P2
2023/12/12 00:01:01;;;;;;;16.50;7.77;;;;;;;;;;5999497;29;20306;-68
2023/12/12 00:04:05;;;;;;;15.90;8.70;;;;;;;;;;5998757;29;20314;-69
2023/12/12 00:07:09;;;;;;;14.23;8.67;;;;;;;;;;5997167;29;20487;-68
2023/12/12 00:10:13;;;;;;;14.00;8.23;;;;;;;;;;6009302;29;20317;-68
2023/12/12 00:13:17;;;;;;;13.27;8.13;;;;;;;;;;6021577;29;20302;-69
2023/12/12 00:16:22;;;;;;;11.67;7.97;;;;;;;;;;6020978;29;20301;-68
2023/12/12 00:19:26;;;;;;;12.53;7.80;;;;;;;;;;6020840;29;20329;-69
2023/12/12 00:22:30;;;;;;;14.73;8.90;;;;;;;;;;6021045;29;20341;-69
2023/12/12 00:25:34;;;;;;;13.43;8.13;;;;;;;;;;6020615;29;20294;-69
2023/12/12 00:28:38;;;;;;;13.20;7.77;;;;;;;;;;6020880;29;20305;-69
2023/12/12 00:31:43;;;;;;;11.37;7.40;;;;;;;;;;6021192;29;20361;-69
2023/12/12 00:34:47;;;;;;;10.77;7.63;;;;;;;;;;6035645;29;20293;-67
2023/12/12 00:37:51;;;;;;;14.03;8.17;;;;;;;;;;6020008;29;20305;-69
2023/12/12 00:40:55;;;;;;;8.87;7.20;;;;;;;;;;6021100;29;20609;-70
2023/12/12 00:43:59;;;;;;;10.83;7.60;;;;;;;;;;6020911;29;20305;-69
2023/12/12 00:47:05;;;;;;;11.97;7.50;;;;;;;;;;6020582;29;20305;-69
2023/12/12 00:50:09;;;;;;;11.13;7.20;;;;;;;;;;6020709;29;20560;-69
2023/12/12 00:53:13;;;;;;;8.20;6.10;;;;;;;;;;6021001;29;20308;-69
2023/12/12 00:56:17;;;;;;;9.27;6.60;;;;;;;;;;6020961;29;20294;-69
2023/12/12 00:59:21;;;;;;;8.50;6.00;;;;;;;;;;6020390;29;20313;-69
2023/12/12 01:02:27;;;;;;;8.83;6.33;;;;;;;;;;6020232;29;20297;-68
2023/12/12 01:05:31;;;;;;;8.00;6.20;;;;;;;;;;6020643;29;20305;-69
2023/12/12 01:08:35;;;;;;;6.80;6.20;;;;;;;;;;6020034;29;20307;-69
2023/12/12 01:11:39;;;;;;;10.17;7.07;;;;;;;;;;6004055;29;20306;-69
2023/12/12 01:14:43;;;;;;;7.70;6.40;;;;;;;;;;5998252;29;20691;-69
2023/12/12 01:17:48;;;;;;;6.73;5.40;;;;;;;;;;5998012;29;20294;-69
2023/12/12 01:20:53;;;;;;;9.50;6.03;;;;;;;;;;6009386;29;20301;-70
2023/12/12 01:23:57;;;;;;;8.33;5.97;;;;;;;;;;6020403;29;20298;-69
2023/12/12 01:27:01;;;;;;;6.13;5.57;;;;;;;;;;6020534;29;20484;-68
2023/12/12 01:30:06;;;;;;;8.10;6.07;;;;;;;;;;6019925;29;20574;-68
2023/12/12 01:33:11;;;;;;;7.00;5.57;;;;;;;;;;6020061;29;20322;-68
2023/12/12 01:36:15;;;;;;;8.63;6.17;;;;;;;;;;6020514;29;20306;-68
2023/12/12 01:39:19;;;;;;;7.90;6.07;;;;;;;;;;6024089;29;20304;-68
2023/12/12 01:42:23;;;;;;;7.27;5.57;;;;;;;;;;6023430;29;20298;-69
2023/12/12 01:45:28;;;;;;;6.23;5.63;;;;;;;;;;6024165;29;20292;-68
2023/12/12 01:48:34;;;;;;;8.07;6.10;;;;;;;;;;6016659;29;20386;-68
2023/12/12 01:51:38;;;;;;;9.40;5.33;;;;;;;;;;6024493;29;20297;-68
2023/12/12 01:54:48;;;;;;;9.90;6.80;;;;;;;;;;6024374;29;20303;-69
2023/12/12 01:57:52;;;;;;;9.30;6.40;;;;;;;;;;6000912;29;20303;-69
2023/12/12 02:00:56;;;;;;;8.57;5.90;;;;;;;;;;6001675;29;20315;-69
2023/12/12 02:04:03;;;;;;;8.50;6.33;;;;;;;;;;6001264;29;20306;-69
2023/12/12 02:07:07;;;;;;;9.13;6.10;;;;;;;;;;6001508;29;20327;-69
2023/12/12 02:10:11;;;;;;;8.93;6.57;;;;;;;;;;6006523;29;20298;-68
2023/12/12 02:13:15;;;;;;;8.53;6.07;;;;;;;;;;6023955;29;20248;-69
2023/12/12 02:16:19;;;;;;;8.07;6.30;;;;;;;;;;6024286;29;20611;-69
2023/12/12 02:19:25;;;;;;;9.67;6.60;;;;;;;;;;6023609;29;20308;-68
2023/12/12 02:22:30;;;;;;;9.37;6.83;;;;;;;;;;6023509;29;20305;-68
2023/12/12 02:25:34;;;;;;;13.23;7.03;;;;;;;;;;6023915;29;20305;-68
2023/12/12 02:28:38;;;;;;;9.63;6.80;;;;;;;;;;6016056;29;20301;-68
2023/12/12 02:31:42;;;;;;;8.17;7.07;;;;;;;;;;6023968;29;20308;-68
2023/12/12 02:34:47;;;;;;;10.03;7.33;;;;;;;;;;6023463;29;20305;-68
2023/12/12 02:37:52;;;;;;;9.20;6.50;;;;;;;;;;6023168;29;20309;-69
2023/12/12 02:40:56;;;;;;;7.83;6.87;;;;;;;;;;6023142;29;20301;-69
2023/12/12 02:44:00;;;;;;;9.63;7.20;;;;;;;;;;6023086;29;20308;-69
2023/12/12 02:47:04;;;;;;;12.03;6.87;;;;;;;;;;6021492;29;20626;-68
2023/12/12 02:50:08;;;;;;;9.77;6.77;;;;;;;;;;6029292;29;20305;-68
2023/12/12 02:53:14;;;;;;;10.47;7.00;;;;;;;;;;6012853;29;22218;-69
2023/12/12 02:56:18;;;;;;;10.83;7.70;;;;;;;;;;6023203;29;20293;-68
2023/12/12 02:59:21;;;;;;;11.40;7.57;;;;;;;;;;6023059;29;20294;-69
2023/12/12 03:02:25;;;;;;;10.90;6.70;;;;;;;;;;6022514;29;20296;-68
2023/12/12 03:05:29;;;;;;;8.83;6.37;;;;;;;;;;6023093;29;20542;-70
2023/12/12 03:08:35;;;;;;;10.43;7.03;;;;;;;;;;6022500;29;20542;-69
2023/12/12 03:11:39;;;;;;;10.10;6.57;;;;;;;;;;6005987;29;20317;-69
2023/12/12 03:14:43;;;;;;;9.27;6.70;;;;;;;;;;5999774;29;20594;-68
2023/12/12 03:17:47;;;;;;;12.83;7.53;;;;;;;;;;5999999;29;20298;-69
2023/12/12 03:20:51;;;;;;;7.27;6.57;;;;;;;;;;6011226;29;20315;-69
2023/12/12 03:23:56;;;;;;;7.57;5.57;;;;;;;;;;6022139;29;20597;-68
2023/12/12 03:27:00;;;;;;;7.00;5.43;;;;;;;;;;6022784;29;20304;-69
2023/12/12 03:30:04;;;;;;;6.00;5.40;;;;;;;;;;6022675;29;20300;-69
2023/12/12 03:33:08;;;;;;;9.07;6.00;;;;;;;;;;6022075;29;20313;-69
2023/12/12 03:36:13;;;;;;;8.33;5.73;;;;;;;;;;6022000;29;20299;-70
2023/12/12 03:39:18;;;;;;;5.60;5.00;;;;;;;;;;6022261;29;20589;-69
2023/12/12 03:42:22;;;;;;;7.30;4.90;;;;;;;;;;6021831;29;20299;-70
2023/12/12 03:45:26;;;;;;;5.93;5.33;;;;;;;;;;6022628;29;20305;-69
2023/12/12 03:48:30;;;;;;;8.07;5.73;;;;;;;;;;6021608;29;20467;-70
2023/12/12 03:51:33;;;;;;;9.47;5.60;;;;;;;;;;6022126;29;20296;-69
2023/12/12 03:54:39;;;;;;;7.87;5.90;;;;;;;;;;6021740;29;20437;-68
2023/12/12 03:57:43;;;;;;;7.20;5.27;;;;;;;;;;6018889;29;20301;-70
2023/12/12 04:00:47;;;;;;;6.87;5.47;;;;;;;;;;6021703;29;20319;-70
2023/12/12 04:03:50;;;;;;;5.73;4.97;;;;;;;;;;6013491;29;20499;-69
2023/12/12 04:06:54;;;;;;;6.40;5.10;;;;;;;;;;6014979;29;20309;-69
2023/12/12 04:10:00;;;;;;;6.20;5.60;;;;;;;;;;5998949;29;20333;-69
2023/12/12 04:13:04;;;;;;;6.43;5.73;;;;;;;;;;6017638;29;20301;-69
2023/12/12 04:16:08;;;;;;;5.83;5.27;;;;;;;;;;6020939;29;20466;-69
2023/12/12 04:19:12;;;;;;;6.77;5.10;;;;;;;;;;6020878;29;20586;-69
2023/12/12 04:22:16;;;;;;;6.17;5.50;;;;;;;;;;6020429;29;20305;-70
2023/12/12 04:25:23;;;;;;;8.07;5.47;;;;;;;;;;6021230;29;20325;-69
2023/12/12 04:28:26;;;;;;;7.40;5.33;;;;;;;;;;6019205;29;20307;-68
2023/12/12 04:31:31;;;;;;;6.00;5.40;;;;;;;;;;6020687;29;20299;-69
2023/12/12 04:34:35;;;;;;;5.13;4.70;;;;;;;;;;5998130;29;20301;-68
2023/12/12 04:37:39;;;;;;;7.50;5.07;;;;;;;;;;6009552;29;20298;-69
2023/12/12 04:40:44;;;;;;;5.67;5.00;;;;;;;;;;6020888;29;20294;-69
2023/12/12 04:43:48;;;;;;;6.77;5.03;;;;;;;;;;6020961;29;20628;-69
2023/12/12 04:46:52;;;;;;;7.77;5.20;;;;;;;;;;6021280;29;20303;-68
2023/12/12 04:49:56;;;;;;;5.87;5.27;;;;;;;;;;6020112;29;20296;-69
2023/12/12 04:53:00;;;;;;;7.27;4.87;;;;;;;;;;6021012;29;20607;-68
2023/12/12 04:56:07;;;;;;;6.57;4.97;;;;;;;;;;6020416;29;20320;-69
2023/12/12 04:59:11;;;;;;;8.43;5.57;;;;;;;;;;6020605;29;20589;-70
2023/12/12 05:02:15;;;;;;;5.63;5.10;;;;;;;;;;6020824;29;20308;-70
2023/12/12 05:05:19;;;;;;;7.50;5.10;;;;;;;;;;6021054;29;20608;-68
2023/12/12 05:08:23;;;;;;;9.33;5.57;;;;;;;;;;6020769;29;20303;-69
2023/12/12 05:11:28;;;;;;;6.67;4.87;;;;;;;;;;6012588;29;20374;-69
2023/12/12 05:14:32;;;;;;;6.27;4.80;;;;;;;;;;6002324;29;20310;-69
2023/12/12 05:17:36;;;;;;;5.50;4.97;;;;;;;;;;6003449;29;20299;-69
2023/12/12 05:20:40;;;;;;;6.60;5.47;;;;;;;;;;6012472;29;20308;-69
2023/12/12 05:23:44;;;;;;;9.40;5.40;;;;;;;;;;6025216;29;20301;-68
2023/12/12 05:26:49;;;;;;;6.63;5.23;;;;;;;;;;6025752;29;20296;-69
2023/12/12 05:29:53;;;;;;;6.33;5.43;;;;;;;;;;6025238;29;20298;-69
2023/12/12 05:32:58;;;;;;;6.97;5.17;;;;;;;;;;6025750;29;20600;-70
2023/12/12 05:36:01;;;;;;;7.83;5.10;;;;;;;;;;6025098;29;20310;-68
2023/12/12 05:39:05;;;;;;;5.97;5.33;;;;;;;;;;6002314;29;20295;-68
2023/12/12 05:42:11;;;;;;;5.90;5.10;;;;;;;;;;6002581;29;20315;-68
2023/12/12 05:45:15;;;;;;;5.90;4.80;;;;;;;;;;6001813;29;20310;-68
2023/12/12 05:48:19;;;;;;;5.60;4.97;;;;;;;;;;6002166;29;20586;-69
2023/12/12 05:51:22;;;;;;;5.27;4.77;;;;;;;;;;6003591;29;20306;-68
2023/12/12 05:54:26;;;;;;;7.23;5.13;;;;;;;;;;6024713;29;20314;-68
2023/12/12 05:57:32;;;;;;;5.93;4.80;;;;;;;;;;6024561;29;20301;-69
2023/12/12 06:00:36;;;;;;;5.90;5.07;;;;;;;;;;6024069;29;20331;-68
2023/12/12 06:03:42;;;;;;;5.47;5.07;;;;;;;;;;6024467;29;20298;-68
2023/12/12 06:06:48;;;;;;;5.10;4.67;;;;;;;;;;6022414;29;20516;-68
2023/12/12 06:09:53;;;;;;;7.23;5.00;;;;;;;;;;6024352;29;20302;-68
2023/12/12 06:12:59;;;;;;;5.90;4.83;;;;;;;;;;6017561;29;20485;-67
2023/12/12 06:16:02;;;;;;;5.23;4.73;;;;;;;;;;6024059;29;20306;-67
2023/12/12 06:19:07;;;;;;;4.47;4.07;;;;;;;;;;6023552;29;20294;-68
2023/12/12 06:22:11;;;;;;;7.07;5.00;;;;;;;;;;6024070;29;20299;-69
2023/12/12 06:25:15;;;;;;;4.97;4.20;;;;;;;;;;6024055;29;20301;-69
2023/12/12 06:28:22;;;;;;;4.63;4.23;;;;;;;;;;6024087;29;20302;-69
2023/12/12 06:31:27;;;;;;;4.67;4.27;;;;;;;;;;6023573;29;20294;-68
2023/12/12 06:34:32;;;;;;;4.60;4.20;;;;;;;;;;6023323;29;20573;-68
2023/12/12 06:37:36;;;;;;;4.40;4.00;;;;;;;;;;6015639;29;20312;-67
2023/12/12 06:40:40;;;;;;;4.73;4.33;;;;;;;;;;6000140;29;20295;-68
2023/12/12 06:43:45;;;;;;;4.67;4.27;;;;;;;;;;6014780;29;20301;-68
2023/12/12 06:46:49;;;;;;;4.90;4.47;;;;;;;;;;6000757;29;20588;-68
2023/12/12 06:49:52;;;;;;;4.80;4.40;;;;;;;;;;6000206;29;20460;-70
2023/12/12 06:52:57;;;;;;;5.13;4.63;;;;;;;;;;6000805;29;20313;-67
2023/12/12 06:56:00;;;;;;;5.30;4.77;;;;;;;;;;6000609;29;20598;-67
2023/12/12 06:59:06;;;;;;;5.83;5.30;;;;;;;;;;5999943;29;20298;-68
2023/12/12 07:02:10;;;;;;;5.33;4.83;;;;;;;;;;6002511;29;20295;-69
2023/12/12 07:05:15;;;;;;;4.97;4.57;;;;;;;;;;5999939;29;20560;-69
2023/12/12 07:08:19;;;;;;;6.40;5.07;;;;;;;;;;6000275;29;20588;-68
2023/12/12 07:11:23;;;;;;;6.03;4.87;;;;;;;;;;6008395;29;20301;-67
2023/12/12 07:14:28;;;;;;;6.67;5.70;;;;;;;;;;6022983;29;20294;-69
2023/12/12 07:17:32;;;;;;;6.47;5.07;;;;;;;;;;6023025;29;20458;-69
2023/12/12 07:20:36;;;;;;;5.60;5.00;;;;;;;;;;6022461;29;20335;-69
2023/12/12 07:23:40;;;;;;;6.03;5.10;;;;;;;;;;6022629;29;20302;-72
2023/12/12 07:26:45;;;;;;;6.97;5.77;;;;;;;;;;6022814;29;20294;-69
2023/12/12 07:29:50;;;;;;;7.37;5.60;;;;;;;;;;6022364;29;20299;-69
2023/12/12 07:32:54;;;;;;;5.70;5.17;;;;;;;;;;6022684;29;20305;-67
2023/12/12 07:35:58;;;;;;;5.13;4.77;;;;;;;;;;6020633;29;20307;-68
2023/12/12 07:39:02;;;;;;;5.97;5.37;;;;;;;;;;6021975;29;20304;-69
2023/12/12 07:42:06;;;;;;;5.87;5.20;;;;;;;;;;6022389;29;20300;-68
2023/12/12 07:45:12;;;;;;;7.17;5.40;;;;;;;;;;6022314;29;20335;-69
2023/12/12 07:48:18;;;;;;;6.83;5.43;;;;;;;;;;6022138;29;20290;-69
2023/12/12 07:51:21;;;;;;;7.10;5.57;;;;;;;;;;6022044;29;20300;-69
2023/12/12 07:54:25;;;;;;;6.30;5.60;;;;;;;;;;6021956;29;20301;-68
2023/12/12 07:57:29;;;;;;;7.73;5.43;;;;;;;;;;6022205;29;20296;-69
2023/12/12 08:00:35;;;;;;;8.23;5.73;;;;;;;;;;6022015;29;20330;-68
2023/12/12 08:03:39;;;;;;;6.77;5.97;;;;;;;;;;6022363;29;20306;-69
2023/12/12 08:06:43;;;;;;;7.03;5.60;;;;;;;;;;6021803;29;20318;-69
2023/12/12 08:09:47;;;;;;;7.17;5.17;;;;;;;;;;6021390;29;20303;-67
2023/12/12 08:12:51;;;;;;;6.07;5.37;;;;;;;;;;6003273;29;20293;-68
2023/12/12 08:15:56;;;;;;;5.73;5.23;;;;;;;;;;5999248;29;20306;-68
2023/12/12 08:19:00;;;;;;;8.37;6.27;;;;;;;;;;5998951;29;20313;-68
2023/12/12 08:22:05;;;;;;;6.13;5.43;;;;;;;;;;5999491;29;20301;-68
2023/12/12 08:25:10;;;;;;;8.33;6.20;;;;;;;;;;5999360;29;20331;-68
2023/12/12 08:28:14;;;;;;;7.57;5.93;;;;;;;;;;6014022;29;20308;-67
2023/12/12 08:31:19;;;;;;;6.67;5.63;;;;;;;;;;6021245;29;20351;-67
2023/12/12 08:34:24;;;;;;;8.20;6.17;;;;;;;;;;6020898;29;20298;-68
2023/12/12 08:37:28;;;;;;;6.63;5.70;;;;;;;;;;6021597;29;20299;-68
2023/12/12 08:40:33;;;;;;;8.13;6.03;;;;;;;;;;6021318;29;20305;-68
2023/12/12 08:43:38;;;;;;;7.70;6.27;;;;;;;;;;6021822;29;20300;-68
2023/12/12 08:46:44;;;;;;;7.60;5.30;;;;;;;;;;6020216;29;20374;-68
2023/12/12 08:49:48;;;;;;;6.30;5.03;;;;;;;;;;6021083;29;20296;-69
2023/12/12 08:52:52;;;;;;;5.73;5.33;;;;;;;;;;6021213;29;20315;-69
2023/12/12 08:55:56;;;;;;;7.93;5.80;;;;;;;;;;6020394;29;20316;-69
2023/12/12 08:59:00;;;;;;;8.00;5.80;;;;;;;;;;6020605;29;20296;-68
2023/12/12 09:02:06;;;;;;;5.70;5.13;;;;;;;;;;6021401;29;20300;-68
2023/12/12 09:05:09;;;;;;;5.67;5.23;;;;;;;;;;6020359;29;20293;-68
2023/12/12 09:08:13;;;;;;;7.67;6.17;;;;;;;;;;6020964;29;20281;-68
2023/12/12 09:11:17;;;;;;;5.53;5.03;;;;;;;;;;6013469;29;20312;-68
2023/12/12 09:14:21;;;;;;;6.63;5.30;;;;;;;;;;5998108;29;20312;-68
2023/12/12 09:17:26;;;;;;;6.53;5.47;;;;;;;;;;5998289;29;20299;-68
2023/12/12 09:20:30;;;;;;;6.37;5.77;;;;;;;;;;5998006;29;20305;-68
2023/12/12 09:23:34;;;;;;;6.83;5.63;;;;;;;;;;5998803;29;20296;-68
2023/12/12 09:26:38;;;;;;;7.10;5.50;;;;;;;;;;5998065;29;20308;-68
2023/12/12 09:29:42;;;;;;;5.97;5.40;;;;;;;;;;6009535;29;20502;-68
2023/12/12 09:32:48;;;;;;;5.90;5.33;;;;;;;;;;6020556;29;20292;-69
2023/12/12 09:35:51;;;;;;;6.40;5.37;;;;;;;;;;6020201;29;20310;-68
2023/12/12 09:38:57;;;;;;;5.83;5.23;;;;;;;;;;6020414;29;20304;-68
2023/12/12 09:42:01;;;;;;;5.97;5.37;;;;;;;;;;6019712;29;20300;-68
2023/12/12 09:45:13;;;;;;;5.77;5.27;;;;;;;;;;6019975;29;20355;-67
2023/12/12 09:48:18;;;;;;;5.10;4.77;;;;;;;;;;6020242;29;20293;-69
2023/12/12 09:51:25;;;;;;;5.87;5.37;;;;;;;;;;6020387;29;20304;-68
2023/12/12 09:54:29;;;;;;;5.30;4.90;;;;;;;;;;6020075;29;20304;-68
2023/12/12 09:57:34;;;;;;;5.27;4.83;;;;;;;;;;6020844;29;20322;-68
2023/12/12 10:00:38;;;;;;;7.53;5.60;;;;;;;;;;6024480;29;20310;-68
2023/12/12 10:03:44;;;;;;;5.97;5.37;;;;;;;;;;6024395;29;20602;-68
2023/12/12 10:06:52;;;;;;;6.20;5.10;;;;;;;;;;6024442;29;20350;-68
2023/12/12 10:09:56;;;;;;;6.27;5.77;;;;;;;;;;6024289;29;20307;-69
2023/12/12 10:13:00;;;;;;;7.13;5.80;;;;;;;;;;6004483;29;20310;-69
2023/12/12 10:16:12;;;;;;;6.73;5.53;;;;;;;;;;6001451;29;20302;-68
2023/12/12 10:19:18;;;;;;;6.37;5.77;;;;;;;;;;6001194;29;20305;-68
2023/12/12 10:22:22;;;;;;;5.93;5.17;;;;;;;;;;6001553;29;20307;-68
2023/12/12 10:25:29;;;;;;;6.20;5.17;;;;;;;;;;6001282;29;20310;-68
2023/12/12 10:28:34;;;;;;;6.87;5.43;;;;;;;;;;6004288;29;20310;-68
2023/12/12 10:31:38;;;;;;;9.87;5.43;;;;;;;;;;6023534;29;20301;-68
2023/12/12 10:34:46;;;;;;;8.07;5.23;;;;;;;;;;6023773;29;20300;-68
2023/12/12 10:37:52;;;;;;;6.80;6.00;;;;;;;;;;6024525;29;20623;-69
2023/12/12 10:41:10;;;;;;;6.10;5.50;;;;;;;;;;6023185;29;20306;-70
2023/12/12 10:44:14;;;;;;;5.73;5.00;;;;;;;;;;6023979;29;20299;-69
2023/12/12 10:47:19;;;;;;;9.17;5.70;;;;;;;;;;6024069;29;20308;-69
2023/12/12 10:50:29;;;;;;;6.27;5.63;;;;;;;;;;6023411;29;20306;-70
2023/12/12 10:53:33;;;;;;;5.60;5.10;;;;;;;;;;6023851;29;20294;-70
2023/12/12 10:56:38;;;;;;;8.57;5.27;;;;;;;;;;6023542;29;20328;-69
2023/12/12 10:59:43;;;;;;;6.23;5.23;;;;;;;;;;6022820;29;20309;-69
2023/12/12 11:03:05;;;;;;;6.33;5.70;;;;;;;;;;6023655;29;20300;-70
2023/12/12 11:06:11;;;;;;;7.27;5.50;;;;;;;;;;6022949;29;20321;-69
2023/12/12 11:09:15;;;;;;;8.47;5.73;;;;;;;;;;6022770;29;20505;-69
2023/12/12 11:12:20;;;;;;;9.27;5.60;;;;;;;;;;6008261;29;20295;-70
2023/12/12 11:15:25;;;;;;;8.83;5.80;;;;;;;;;;6000914;29;20439;-69
2023/12/12 11:18:30;;;;;;;7.13;5.83;;;;;;;;;;6000590;29;20305;-69
2023/12/12 11:21:45;;;;;;;10.13;5.93;;;;;;;;;;6000291;29;20306;-69
2023/12/12 11:25:07;;;;;;;6.60;5.43;;;;;;;;;;6000112;29;20302;-68
2023/12/12 11:28:11;;;;;;;7.67;5.87;;;;;;;;;;6000238;29;20295;-70
2023/12/12 11:31:21;;;;;;;6.50;5.43;;;;;;;;;;6022340;29;20302;-70
2023/12/12 11:34:26;;;;;;;5.13;4.73;;;;;;;;;;6022671;29;20304;-69
2023/12/12 11:37:43;;;;;;;7.80;5.60;;;;;;;;;;6023561;29;20502;-70
2023/12/12 11:41:10;;;;;;;6.23;5.30;;;;;;;;;;6021726;29;20359;-69
2023/12/12 11:44:14;;;;;;;5.20;4.40;;;;;;;;;;6021256;29;20298;-69
2023/12/12 11:47:21;;;;;;;7.13;5.40;;;;;;;;;;6022688;29;20298;-69
2023/12/12 11:54:06;;;;;;;6.60;5.07;;;;;;;;;;6021978;29;20304;-69
2023/12/12 11:57:10;;;;;;;6.87;5.33;;;;;;;;;;6036085;29;20307;-69
2023/12/12 12:00:15;;;;;;;9.10;4.93;;;;;;;;;;6021577;29;20313;-69
2023/12/12 12:03:22;;;;;;;6.47;5.10;;;;;;;;;;6022297;29;20298;-69
2023/12/12 12:06:26;;;;;;;5.80;5.13;;;;;;;;;;6021410;29;20321;-68
2023/12/12 12:09:31;;;;;;;5.50;5.00;;;;;;;;;;6021341;29;20306;-68
2023/12/12 12:12:54;;;;;;;6.03;4.97;;;;;;;;;;6003012;29;20298;-70
2023/12/12 12:15:58;;;;;;;5.23;4.77;;;;;;;;;;5999367;29;20303;-69
2023/12/12 12:19:32;;;;;;;9.03;5.40;;;;;;;;;;5998901;29;20613;-68
2023/12/12 12:22:38;;;;;;;6.93;4.80;;;;;;;;;;5998888;29;20302;-68
2023/12/12 12:25:43;;;;;;;5.90;5.03;;;;;;;;;;5999024;29;20566;-68
2023/12/12 12:28:48;;;;;;;5.37;4.70;;;;;;;;;;6003305;29;20466;-69
2023/12/12 12:31:52;;;;;;;5.13;4.40;;;;;;;;;;5999036;29;20311;-69
2023/12/12 12:35:07;;;;;;;6.23;4.67;;;;;;;;;;6006049;29;20304;-69
2023/12/12 12:38:23;;;;;;;6.87;5.40;;;;;;;;;;6021519;29;20309;-69
2023/12/12 12:41:29;;;;;;;6.73;4.80;;;;;;;;;;6021123;29;20314;-70
2023/12/12 12:44:33;;;;;;;5.37;4.87;;;;;;;;;;6020927;29;20572;-69
2023/12/12 12:47:38;;;;;;;5.27;4.67;;;;;;;;;;6021653;29;20319;-68
2023/12/12 12:50:42;;;;;;;5.63;5.13;;;;;;;;;;6020791;29;20604;-68
2023/12/12 12:53:46;;;;;;;5.87;4.97;;;;;;;;;;6021048;29;20290;-68
2023/12/12 12:56:51;;;;;;;5.57;4.57;;;;;;;;;;6021371;29;20582;-68
2023/12/12 12:59:55;;;;;;;4.83;4.43;;;;;;;;;;6020787;29;20292;-68
2023/12/12 13:02:59;;;;;;;4.50;4.20;;;;;;;;;;6021607;29;20290;-68
2023/12/12 13:06:04;;;;;;;4.33;4.03;;;;;;;;;;6020572;29;20305;-68
2023/12/12 13:09:17;;;;;;;6.20;4.17;;;;;;;;;;6020300;29;20346;-69
2023/12/12 13:12:23;;;;;;;4.40;4.10;;;;;;;;;;6020303;29;20603;-68
2023/12/12 13:15:27;;;;;;;4.83;4.53;;;;;;;;;;5998348;29;20310;-68
2023/12/12 13:18:31;;;;;;;4.30;4.00;;;;;;;;;;5996784;29;20315;-69
2023/12/12 13:21:35;;;;;;;4.20;3.80;;;;;;;;;;6005355;29;20291;-69
2023/12/12 13:24:39;;;;;;;4.03;3.93;;;;;;;;;;5998293;29;20379;-69
2023/12/12 13:27:44;;;;;;;5.23;4.07;;;;;;;;;;5998659;29;20302;-70
2023/12/12 13:30:48;;;;;;;4.97;4.17;;;;;;;;;;6017691;29;20554;-69
2023/12/12 13:33:52;;;;;;;4.73;4.33;;;;;;;;;;6022469;29;20250;-69
2023/12/12 13:36:57;;;;;;;4.57;4.20;;;;;;;;;;6025157;29;20303;-69
2023/12/12 13:40:01;;;;;;;4.20;3.80;;;;;;;;;;6024698;29;20299;-69
2023/12/12 13:43:06;;;;;;;4.80;4.30;;;;;;;;;;6025619;29;20300;-69
2023/12/12 13:46:10;;;;;;;4.10;3.80;;;;;;;;;;6024974;29;20308;-69
2023/12/12 13:49:14;;;;;;;4.50;3.43;;;;;;;;;;6024949;29;20300;-69
2023/12/12 13:52:18;;;;;;;4.23;3.90;;;;;;;;;;6022614;29;20315;-69
2023/12/12 13:55:22;;;;;;;4.20;3.90;;;;;;;;;;6017835;29;20298;-68
2023/12/12 13:58:27;;;;;;;4.30;3.93;;;;;;;;;;6001891;29;20300;-69
2023/12/12 14:01:31;;;;;;;4.90;4.17;;;;;;;;;;6001791;29;20303;-69
2023/12/12 14:04:35;;;;;;;4.20;3.90;;;;;;;;;;6000904;29;20302;-68
2023/12/12 14:07:39;;;;;;;3.90;3.70;;;;;;;;;;6001967;29;20257;-68
2023/12/12 14:10:43;;;;;;;4.87;3.87;;;;;;;;;;6004040;29;20303;-68
2023/12/12 14:13:48;;;;;;;6.43;5.07;;;;;;;;;;6038721;29;20293;-69
2023/12/12 14:16:52;;;;;;;4.70;4.20;;;;;;;;;;6033083;29;20589;-69
2023/12/12 14:19:59;;;;;;;4.57;3.47;;;;;;;;;;6040021;29;20310;-68
2023/12/12 14:23:04;;;;;;;3.80;3.60;;;;;;;;;;6001777;29;20303;-68
2023/12/12 14:26:16;;;;;;;3.73;3.50;;;;;;;;;;6001389;29;20385;-69
2023/12/12 14:29:22;;;;;;;4.97;3.80;;;;;;;;;;6009883;29;20574;-69
2023/12/12 14:32:27;;;;;;;3.73;3.43;;;;;;;;;;6023744;29;20311;-69
2023/12/12 14:35:32;;;;;;;3.80;3.60;;;;;;;;;;6023384;29;20298;-69
2023/12/12 14:38:36;;;;;;;3.90;3.70;;;;;;;;;;6024401;29;20305;-69
2023/12/12 14:41:40;;;;;;;3.83;3.53;;;;;;;;;;6022912;29;20304;-69
2023/12/12 14:44:46;;;;;;;3.70;3.50;;;;;;;;;;6022243;29;20305;-70
2023/12/12 14:47:50;;;;;;;4.13;3.70;;;;;;;;;;6001153;29;20298;-69
2023/12/12 14:50:54;;;;;;;3.97;3.67;;;;;;;;;;6000487;29;20302;-69
2023/12/12 14:53:58;;;;;;;3.93;3.63;;;;;;;;;;6000635;29;20600;-69
2023/12/12 14:57:03;;;;;;;4.03;3.73;;;;;;;;;;6021240;29;20480;-70
2023/12/12 15:00:17;;;;;;;3.80;3.60;;;;;;;;;;6019962;29;20297;-70
2023/12/12 15:03:29;;;;;;;4.53;4.23;;;;;;;;;;5999599;29;20460;-69
2023/12/12 15:06:33;;;;;;;3.70;3.50;;;;;;;;;;6000065;29;20309;-69
2023/12/12 15:09:37;;;;;;;4.63;4.23;;;;;;;;;;6000631;29;20437;-70
2023/12/12 15:12:41;;;;;;;4.00;3.70;;;;;;;;;;6019966;29;20346;-68
2023/12/12 15:15:47;;;;;;;3.77;3.57;;;;;;;;;;6032369;29;20288;-69
2023/12/12 15:18:50;;;;;;;4.53;4.23;;;;;;;;;;5999130;29;20489;-69
2023/12/12 15:21:54;;;;;;;4.33;3.93;;;;;;;;;;6000286;29;20556;-69
2023/12/12 15:24:58;;;;;;;5.77;4.10;;;;;;;;;;5999312;29;20310;-71
2023/12/12 15:28:02;;;;;;;4.30;3.90;;;;;;;;;;5998953;29;20297;-70
2023/12/12 15:31:28;;;;;;;4.17;3.97;;;;;;;;;;5999832;29;20379;-69
2023/12/12 15:34:32;;;;;;;4.30;4.00;;;;;;;;;;5998886;29;20261;-70
2023/12/12 15:37:38;;;;;;;4.50;4.20;;;;;;;;;;6000155;29;20320;-69
2023/12/12 15:40:42;;;;;;;4.50;4.10;;;;;;;;;;5999817;29;20391;-69
2023/12/12 15:43:46;;;;;;;4.33;4.00;;;;;;;;;;6021351;29;20301;-69
2023/12/12 15:46:52;;;;;;;4.60;4.20;;;;;;;;;;6022159;29;20483;-69
2023/12/12 15:49:56;;;;;;;4.53;4.13;;;;;;;;;;6021578;29;20298;-69
2023/12/12 15:53:00;;;;;;;4.40;4.10;;;;;;;;;;6000532;29;20295;-68
2023/12/12 15:56:09;;;;;;;4.50;4.13;;;;;;;;;;6011392;29;20297;-69
2023/12/12 15:59:13;;;;;;;4.60;4.30;;;;;;;;;;6021663;29;20312;-70
2023/12/12 16:02:18;;;;;;;4.87;4.47;;;;;;;;;;6021609;29;20322;-71
2023/12/12 16:05:23;;;;;;;5.30;4.80;;;;;;;;;;6034232;29;20532;-69
2023/12/12 16:08:27;;;;;;;4.47;4.23;;;;;;;;;;6021800;29;20571;-69
2023/12/12 16:11:31;;;;;;;5.40;4.90;;;;;;;;;;6015947;29;20310;-69
2023/12/12 16:14:35;;;;;;;4.63;4.30;;;;;;;;;;6020840;29;20300;-70
2023/12/12 16:17:41;;;;;;;4.67;4.33;;;;;;;;;;6021749;29;20307;-70
2023/12/12 16:20:48;;;;;;;4.40;4.13;;;;;;;;;;6020790;29;20319;-69
2023/12/12 16:23:52;;;;;;;4.50;4.20;;;;;;;;;;6021120;29;20318;-69
2023/12/12 16:26:55;;;;;;;5.30;4.83;;;;;;;;;;6021020;29;20300;-69
2023/12/12 16:29:59;;;;;;;5.17;4.73;;;;;;;;;;6021137;29;20259;-69
2023/12/12 16:33:05;;;;;;;5.03;4.63;;;;;;;;;;6020944;29;20307;-69
2023/12/12 16:36:10;;;;;;;5.00;4.60;;;;;;;;;;6020972;29;20321;-70
2023/12/12 16:39:14;;;;;;;4.53;4.20;;;;;;;;;;6020836;29;20298;-69
2023/12/12 16:42:18;;;;;;;4.33;4.03;;;;;;;;;;6021408;29;20299;-70
2023/12/12 16:45:22;;;;;;;5.13;4.50;;;;;;;;;;6020319;29;20303;-70
2023/12/12 16:48:28;;;;;;;4.50;4.20;;;;;;;;;;6021038;29;20356;-70
2023/12/12 16:51:32;;;;;;;4.60;4.30;;;;;;;;;;6020716;29;20297;-70
2023/12/12 16:54:36;;;;;;;4.93;4.40;;;;;;;;;;6020342;29;20297;-71
2023/12/12 16:57:40;;;;;;;4.77;4.37;;;;;;;;;;6020896;29;20298;-71
2023/12/12 17:00:44;;;;;;;5.03;4.70;;;;;;;;;;6015748;29;20311;-70
2023/12/12 17:03:49;;;;;;;4.53;4.23;;;;;;;;;;6020486;29;20302;-70
2023/12/12 17:06:54;;;;;;;4.70;4.40;;;;;;;;;;6020286;29;20302;-69
2023/12/12 17:09:58;;;;;;;4.80;4.43;;;;;;;;;;6020075;29;20410;-69
2023/12/12 17:13:02;;;;;;;5.00;4.60;;;;;;;;;;6015315;29;20307;-69
2023/12/12 17:16:07;;;;;;;5.60;5.07;;;;;;;;;;6019843;29;20296;-69
2023/12/12 17:19:12;;;;;;;3.90;3.60;;;;;;;;;;5997694;29;20307;-69
2023/12/12 17:22:16;;;;;;;4.23;3.93;;;;;;;;;;5998534;29;20500;-69
2023/12/12 17:25:21;;;;;;;4.60;4.30;;;;;;;;;;5998212;29;20306;-68
2023/12/12 17:28:25;;;;;;;4.57;4.13;;;;;;;;;;5999209;29;20300;-70
2023/12/12 17:31:29;;;;;;;5.10;4.70;;;;;;;;;;5998299;29;20301;-70
2023/12/12 17:34:35;;;;;;;5.00;4.60;;;;;;;;;;5998392;29;20481;-69
2023/12/12 17:37:40;;;;;;;5.10;4.70;;;;;;;;;;5998615;29;20325;-69
2023/12/12 17:40:44;;;;;;;4.57;4.27;;;;;;;;;;5997745;29;20324;-69
2023/12/12 17:43:48;;;;;;;5.67;5.00;;;;;;;;;;5996635;29;20306;-69
2023/12/12 17:46:52;;;;;;;6.13;5.03;;;;;;;;;;5998613;29;20564;-69
2023/12/12 17:49:58;;;;;;;5.03;4.53;;;;;;;;;;5997371;29;20315;-68
2023/12/12 17:53:08;;;;;;;4.47;4.00;;;;;;;;;;5997838;29;20308;-69
2023/12/12 17:56:12;;;;;;;4.73;4.33;;;;;;;;;;5997524;29;20465;-68
2023/12/12 17:59:15;;;;;;;4.73;4.43;;;;;;;;;;5997689;29;20326;-69
2023/12/12 18:02:19;;;;;;;5.00;4.40;;;;;;;;;;5997863;29;20303;-69
2023/12/12 18:05:27;;;;;;;5.27;4.77;;;;;;;;;;5997445;29;20312;-69
2023/12/12 18:08:32;;;;;;;4.47;4.17;;;;;;;;;;5997753;29;20346;-68
2023/12/12 18:11:35;;;;;;;4.50;4.20;;;;;;;;;;6006649;29;20295;-69
2023/12/12 18:14:39;;;;;;;4.77;4.37;;;;;;;;;;6020255;29;20292;-68
2023/12/12 18:17:43;;;;;;;5.70;4.70;;;;;;;;;;6019989;29;20287;-68
2023/12/12 18:20:50;;;;;;;5.00;4.60;;;;;;;;;;6036667;29;20571;-68
2023/12/12 18:23:54;;;;;;;5.20;4.70;;;;;;;;;;6023690;29;20312;-69
2023/12/12 18:26:58;;;;;;;4.77;4.30;;;;;;;;;;6024343;29;20290;-69
2023/12/12 18:30:04;;;;;;;5.37;4.87;;;;;;;;;;6023594;29;20306;-69
2023/12/12 18:33:08;;;;;;;4.43;4.13;;;;;;;;;;6024180;29;20309;-69